Time;durP1;ratioP1;P1;durP2;ratioP2;P2;SDS_P1;SDS_P2;PMS_P1;PMS_P2;Temp;Humidity;BMP_temperature;BMP_pressure;BME280_temperature;BME280_humidity;BME280_pressure;Samples;Min_cycle;Max_cycle;Signal;HPM_P1;HPM_P2
2021/12/31 00:01:18;;;;;;;5.50;4.40;;;13.30;99.90;;;;;;12498658;28;20098;-39
2021/12/31 00:07:20;;;;;;;6.95;4.22;;;13.20;99.90;;;;;;12518979;28;20455;-47
2021/12/31 00:13:22;;;;;;;5.60;4.32;;;13.20;99.90;;;;;;12516518;28;20477;-40
2021/12/31 00:19:26;;;;;;;5.70;3.53;;;13.20;99.90;;;;;;12518682;28;20450;-40
2021/12/31 00:25:30;;;;;;;5.53;3.00;;;13.20;99.90;;;;;;12517070;28;20064;-39
2021/12/31 00:31:32;;;;;;;4.53;3.40;;;13.20;99.90;;;;;;12518163;28;20140;-39
2021/12/31 00:37:36;;;;;;;4.80;3.28;;;13.10;99.90;;;;;;12517272;28;20052;-39
2021/12/31 00:43:38;;;;;;;8.35;3.80;;;13.00;99.90;;;;;;12516592;28;20408;-40
2021/12/31 00:49:41;;;;;;;5.38;3.05;;;13.00;99.90;;;;;;12519654;28;20148;-40
2021/12/31 00:55:43;;;;;;;4.50;2.70;;;13.00;99.90;;;;;;12514921;28;20204;-40
2021/12/31 01:01:45;;;;;;;4.18;2.78;;;13.00;99.90;;;;;;12516599;28;20083;-39
2021/12/31 01:07:47;;;;;;;9.80;3.90;;;12.90;99.90;;;;;;12514502;28;20090;-39
2021/12/31 01:13:55;;;;;;;6.35;5.07;;;12.80;99.90;;;;;;12520604;28;20048;-40
2021/12/31 01:19:57;;;;;;;6.97;5.88;;;12.90;99.90;;;;;;12522509;28;20120;-40
2021/12/31 01:25:59;;;;;;;8.93;6.82;;;12.80;99.90;;;;;;12521727;28;20061;-40
2021/12/31 01:32:02;;;;;;;9.60;7.85;;;12.60;99.90;;;;;;12523049;28;20551;-39
2021/12/31 01:38:03;;;;;;;10.55;8.05;;;12.50;99.90;;;;;;12519670;28;20048;-39
2021/12/31 01:44:07;;;;;;;11.93;8.95;;;12.50;99.90;;;;;;12515796;28;20053;-40
2021/12/31 01:50:09;;;;;;;10.70;8.63;;;12.50;99.90;;;;;;12522459;28;20677;-39
2021/12/31 01:56:11;;;;;;;12.30;9.15;;;12.50;99.90;;;;;;12516843;28;20055;-38
2021/12/31 02:02:13;;;;;;;11.15;9.88;;;12.50;99.90;;;;;;12517960;28;20127;-39
2021/12/31 02:08:16;;;;;;;12.52;10.55;;;12.50;99.90;;;;;;12519112;28;20124;-39
2021/12/31 02:14:18;;;;;;;12.85;10.82;;;12.50;99.90;;;;;;12516302;28;20049;-39
2021/12/31 02:20:20;;;;;;;13.95;10.00;;;12.50;99.90;;;;;;12520685;28;20106;-39
2021/12/31 02:26:22;;;;;;;13.85;9.52;;;12.50;99.90;;;;;;12516047;28;20045;-39
2021/12/31 02:32:24;;;;;;;12.05;7.30;;;12.50;99.90;;;;;;12516125;28;20159;-38
2021/12/31 02:38:26;;;;;;;10.90;7.13;;;12.60;99.90;;;;;;12516538;28;20122;-39
2021/12/31 02:44:28;;;;;;;10.10;7.72;;;12.60;99.90;;;;;;12515686;28;20139;-39
2021/12/31 02:50:34;;;;;;;12.48;9.20;;;12.60;99.90;;;;;;12517212;28;20138;-40
2021/12/31 02:56:37;;;;;;;10.32;9.05;;;12.50;99.90;;;;;;12516467;28;20053;-39
2021/12/31 03:02:40;;;;;;;11.95;8.80;;;12.40;99.90;;;;;;12515474;28;20052;-40
2021/12/31 03:08:45;;;;;;;13.30;8.43;;;12.40;99.90;;;;;;12516209;28;20049;-38
2021/12/31 03:14:49;;;;;;;10.25;7.35;;;12.40;99.90;;;;;;12516739;28;20044;-39
2021/12/31 03:21:00;;;;;;;9.82;6.10;;;12.50;99.90;;;;;;12495777;28;20087;-39
2021/12/31 03:27:03;;;;;;;9.30;5.57;;;12.50;99.90;;;;;;12497526;28;20053;-40
2021/12/31 03:33:05;;;;;;;10.05;5.10;;;12.60;99.90;;;;;;12511752;28;20140;-40
2021/12/31 03:39:07;;;;;;;8.35;3.85;;;12.60;99.90;;;;;;12514771;28;20080;-39
2021/12/31 03:45:09;;;;;;;6.97;3.97;;;12.50;99.90;;;;;;12495449;28;20106;-39
2021/12/31 03:51:11;;;;;;;6.80;2.97;;;12.60;99.90;;;;;;12514852;28;20060;-38
2021/12/31 03:57:13;;;;;;;8.65;3.17;;;12.60;99.90;;;;;;12516980;28;20059;-39
2021/12/31 04:03:16;;;;;;;8.77;2.72;;;12.60;99.90;;;;;;12518066;28;20079;-38
2021/12/31 04:09:18;;;;;;;5.32;2.53;;;12.70;99.90;;;;;;12497719;28;20083;-39
2021/12/31 04:15:20;;;;;;;7.82;2.80;;;12.70;99.90;;;;;;12514387;28;20143;-40
2021/12/31 04:21:24;;;;;;;11.48;3.17;;;12.80;99.90;;;;;;12514653;28;20048;-39
2021/12/31 04:27:26;;;;;;;7.18;2.60;;;12.70;99.90;;;;;;12508427;28;20053;-40
2021/12/31 04:33:27;;;;;;;6.57;2.08;;;12.70;99.90;;;;;;12513614;28;20051;-40
2021/12/31 04:39:30;;;;;;;6.05;2.10;;;12.80;99.90;;;;;;12517515;28;20536;-39
2021/12/31 04:45:32;;;;;;;9.07;2.20;;;12.80;99.90;;;;;;12515001;28;20083;-40
2021/12/31 04:51:35;;;;;;;6.80;2.08;;;12.90;99.90;;;;;;12513809;28;20421;-39
2021/12/31 04:57:37;;;;;;;6.97;2.30;;;12.90;99.90;;;;;;12515385;28;21056;-39
2021/12/31 05:03:40;;;;;;;5.47;1.63;;;12.90;99.90;;;;;;12512846;28;20140;-39
2021/12/31 05:09:42;;;;;;;5.03;2.00;;;13.00;99.90;;;;;;12516112;28;20045;-40
2021/12/31 05:15:46;;;;;;;5.80;1.80;;;13.00;99.90;;;;;;12513793;28;20041;-40
2021/12/31 05:21:48;;;;;;;4.63;1.95;;;13.00;99.90;;;;;;12513432;28;20477;-39
2021/12/31 05:27:50;;;;;;;5.50;1.70;;;13.00;99.90;;;;;;12515302;28;20127;-39
2021/12/31 05:33:52;;;;;;;5.68;1.55;;;13.00;99.90;;;;;;12512676;28;20052;-39
2021/12/31 05:39:54;;;;;;;3.60;1.65;;;13.00;99.90;;;;;;12512598;28;20147;-40
2021/12/31 05:45:56;;;;;;;6.15;1.73;;;13.00;99.90;;;;;;12514095;28;20102;-39
2021/12/31 05:51:58;;;;;;;5.80;1.50;;;13.00;99.90;;;;;;12517709;28;20465;-41
2021/12/31 05:58:01;;;;;;;4.45;1.60;;;12.90;99.90;;;;;;12516005;28;20053;-39
2021/12/31 06:04:03;;;;;;;3.60;1.42;;;13.00;99.90;;;;;;12524294;28;20044;-39
2021/12/31 06:10:06;;;;;;;3.15;1.50;;;12.90;99.90;;;;;;12524006;28;20052;-38
2021/12/31 06:16:08;;;;;;;4.70;1.50;;;12.90;99.90;;;;;;12524532;28;20477;-40
2021/12/31 06:22:10;;;;;;;2.85;1.27;;;12.90;99.90;;;;;;12505724;28;20045;-40
2021/12/31 06:28:12;;;;;;;5.25;1.48;;;12.90;99.90;;;;;;12523828;28;20509;-39
2021/12/31 06:34:14;;;;;;;3.88;1.45;;;12.90;99.90;;;;;;12524671;28;20086;-39
2021/12/31 06:40:16;;;;;;;5.75;1.50;;;12.90;99.90;;;;;;12522214;28;20060;-38
2021/12/31 06:46:20;;;;;;;6.50;1.77;;;12.90;99.90;;;;;;12526003;28;20044;-39
2021/12/31 06:52:22;;;;;;;7.03;1.60;;;12.90;99.90;;;;;;12519649;28;20052;-38
2021/12/31 06:58:24;;;;;;;6.05;1.50;;;12.80;99.90;;;;;;12521097;28;20048;-38
2021/12/31 07:04:26;;;;;;;4.95;1.73;;;12.70;99.90;;;;;;12525171;28;20078;-40
2021/12/31 07:10:28;;;;;;;6.82;1.55;;;12.70;99.90;;;;;;12522487;28;20056;-39
2021/12/31 07:16:31;;;;;;;3.85;1.42;;;12.70;99.90;;;;;;12523793;28;20156;-39
2021/12/31 07:22:34;;;;;;;6.93;2.03;;;12.70;99.90;;;;;;12520047;28;20060;-38
2021/12/31 07:28:36;;;;;;;5.80;1.63;;;12.70;99.90;;;;;;12521757;28;20152;-38
2021/12/31 07:34:38;;;;;;;5.57;1.70;;;12.80;99.90;;;;;;12523930;28;20049;-38
2021/12/31 07:40:41;;;;;;;5.60;1.75;;;12.70;99.90;;;;;;12522224;28;20056;-39
2021/12/31 07:46:45;;;;;;;4.47;1.50;;;12.70;99.90;;;;;;12520053;28;20144;-38
2021/12/31 07:52:47;;;;;;;8.03;2.13;;;12.50;99.90;;;;;;12523914;28;20045;-38
2021/12/31 07:58:50;;;;;;;9.90;1.63;;;12.60;99.90;;;;;;12523435;28;20045;-39
2021/12/31 08:04:52;;;;;;;8.30;1.80;;;12.70;99.90;;;;;;12517394;28;20144;-38
2021/12/31 08:10:54;;;;;;;3.60;1.67;;;12.70;99.90;;;;;;12519122;28;20059;-38
2021/12/31 08:16:58;;;;;;;1.93;1.17;;;12.70;99.90;;;;;;12521081;28;20152;-40
2021/12/31 08:23:09;;;;;;;4.60;1.65;;;12.80;99.90;;;;;;12519054;28;20049;-38
2021/12/31 08:29:12;;;;;;;5.18;1.30;;;12.80;99.90;;;;;;12522265;28;20044;-40
2021/12/31 08:35:16;;;;;;;3.72;1.40;;;12.80;99.90;;;;;;12494953;28;20044;-39
2021/12/31 08:41:18;;;;;;;2.75;1.50;;;12.90;99.90;;;;;;12521129;28;20618;-38
2021/12/31 08:47:40;;;;;;;3.63;1.13;;;12.90;99.90;;;;;;12519695;28;20080;-39
2021/12/31 08:53:42;;;;;;;3.78;1.23;;;12.80;99.90;;;;;;12517195;28;20068;-40
2021/12/31 08:59:44;;;;;;;3.78;1.50;;;12.80;99.90;;;;;;12520218;28;20355;-39
2021/12/31 09:05:47;;;;;;;4.07;1.50;;;12.80;99.90;;;;;;12520184;28;20056;-38
2021/12/31 09:11:50;;;;;;;4.00;1.45;;;12.70;99.90;;;;;;12518156;28;20071;-38
2021/12/31 09:17:55;;;;;;;4.10;1.42;;;12.70;99.90;;;;;;12522186;28;20081;-38
2021/12/31 09:23:57;;;;;;;4.88;1.80;;;12.70;99.90;;;;;;12520075;28;20044;-39
2021/12/31 09:29:59;;;;;;;3.92;1.70;;;12.70;99.90;;;;;;12518109;28;20049;-39
2021/12/31 09:36:03;;;;;;;2.75;1.20;;;12.80;99.90;;;;;;12529182;28;20630;-38
2021/12/31 09:42:07;;;;;;;4.57;1.40;;;12.80;99.90;;;;;;12529903;28;20077;-38
2021/12/31 09:48:11;;;;;;;5.75;1.73;;;12.90;99.90;;;;;;12529261;28;20136;-40
2021/12/31 09:54:14;;;;;;;2.83;1.48;;;12.90;99.90;;;;;;12530603;28;20076;-38
2021/12/31 10:00:17;;;;;;;3.05;1.50;;;13.00;99.90;;;;;;12512272;28;20601;-38
2021/12/31 10:06:20;;;;;;;3.58;1.45;;;13.00;99.90;;;;;;12531568;28;20473;-39
2021/12/31 10:12:23;;;;;;;6.90;1.60;;;13.00;99.90;;;;;;12531484;28;20053;-39
2021/12/31 10:18:37;;;;;;;4.78;1.80;;;13.10;99.90;;;;;;12529212;28;20048;-39
2021/12/31 10:24:40;;;;;;;2.28;1.50;;;13.00;99.90;;;;;;12519741;28;20068;-39
2021/12/31 10:30:43;;;;;;;5.03;1.40;;;13.00;99.90;;;;;;12527643;28;20166;-39
2021/12/31 10:36:46;;;;;;;3.30;1.40;;;13.10;99.90;;;;;;12528197;28;20136;-38
2021/12/31 10:42:49;;;;;;;3.42;1.60;;;13.20;99.90;;;;;;12525123;28;20053;-40
2021/12/31 10:48:55;;;;;;;2.83;1.48;;;13.30;99.90;;;;;;12525589;28;20053;-39
2021/12/31 10:55:21;;;;;;;3.75;1.50;;;13.40;99.90;;;;;;12527796;28;20045;-38
2021/12/31 11:01:24;;;;;;;4.32;1.50;;;13.30;99.90;;;;;;12528254;28;20152;-38
2021/12/31 11:07:28;;;;;;;3.50;1.70;;;13.20;99.90;;;;;;12527548;28;20052;-39
2021/12/31 11:13:31;;;;;;;3.78;1.38;;;13.20;99.90;;;;;;12522766;28;20473;-39
2021/12/31 11:19:39;;;;;;;5.07;1.60;;;13.30;99.90;;;;;;12526990;28;20460;-37
2021/12/31 11:26:06;;;;;;;2.78;1.20;;;13.30;99.90;;;;;;12527081;28;20053;-39
2021/12/31 11:32:10;;;;;;;4.55;1.40;;;13.20;99.90;;;;;;12523761;28;20420;-39
2021/12/31 11:38:20;;;;;;;3.03;1.40;;;13.20;99.90;;;;;;12526451;28;21168;-39
2021/12/31 11:44:24;;;;;;;4.72;1.40;;;13.20;99.90;;;;;;12522871;28;20614;-38
2021/12/31 11:50:31;;;;;;;3.25;1.45;;;13.20;99.90;;;;;;12526991;28;20041;-38
2021/12/31 11:56:45;;;;;;;4.50;1.50;;;13.00;99.90;;;;;;12513563;28;20413;-39
2021/12/31 12:02:50;;;;;;;3.17;1.40;;;12.90;99.90;;;;;;12531287;28;20049;-39
2021/12/31 12:08:53;;;;;;;6.15;1.50;;;13.00;99.90;;;;;;12526951;28;20054;-39
2021/12/31 12:14:57;;;;;;;3.15;1.40;;;12.90;99.90;;;;;;12522240;28;20234;-38
2021/12/31 12:21:03;;;;;;;3.00;1.48;;;12.90;99.90;;;;;;12525081;28;20262;-38
2021/12/31 12:27:06;;;;;;;4.40;1.33;;;12.90;99.90;;;;;;12522163;28;20624;-39
2021/12/31 12:39:17;;;;;;;3.95;1.20;;;12.90;99.90;;;;;;12523598;28;20049;-40
2021/12/31 12:45:20;;;;;;;3.03;1.30;;;12.90;99.90;;;;;;12522192;28;20045;-40
2021/12/31 12:51:28;;;;;;;2.88;1.50;;;12.90;99.90;;;;;;12523072;28;20060;-39
2021/12/31 12:57:30;;;;;;;2.92;1.40;;;13.00;99.90;;;;;;12521340;28;20087;-40
2021/12/31 13:03:54;;;;;;;3.58;1.70;;;12.90;99.90;;;;;;12521807;28;20048;-39
2021/12/31 13:10:05;;;;;;;3.67;1.40;;;12.90;99.90;;;;;;12530431;28;20052;-38
2021/12/31 13:16:10;;;;;;;3.38;1.55;;;12.80;99.90;;;;;;12534138;28;20073;-39
2021/12/31 13:22:14;;;;;;;2.58;1.42;;;12.80;99.90;;;;;;12531031;28;20136;-40
2021/12/31 13:28:29;;;;;;;3.70;1.65;;;12.90;99.90;;;;;;12532053;28;20108;-39
2021/12/31 13:34:43;;;;;;;3.97;1.63;;;13.00;99.90;;;;;;12531168;28;20139;-38
2021/12/31 13:40:54;;;;;;;2.63;1.27;;;13.10;99.90;;;;;;12529792;28;20045;-39
2021/12/31 13:47:03;;;;;;;3.83;1.60;;;13.00;99.90;;;;;;12527628;28;20052;-39
2021/12/31 13:53:05;;;;;;;4.97;1.30;;;13.00;99.90;;;;;;12509776;28;20051;-39
2021/12/31 13:59:19;;;;;;;7.03;2.30;;;12.90;99.90;;;;;;12526551;28;20140;-38
2021/12/31 14:05:27;;;;;;;4.80;1.60;;;12.90;99.90;;;;;;12526006;28;20159;-38
2021/12/31 14:11:29;;;;;;;5.68;1.83;;;12.80;99.90;;;;;;12527962;28;20159;-38
2021/12/31 14:17:32;;;;;;;4.20;1.60;;;12.80;99.90;;;;;;12528016;28;20140;-38
2021/12/31 14:45:54;;;;;;;2.88;1.50;;;13.00;99.90;;;;;;12482748;23;20472;-85
2021/12/31 14:51:56;;;;;;;6.60;1.80;;;13.20;99.90;;;;;;12450512;28;20053;-84
2021/12/31 14:57:58;;;;;;;5.35;1.88;;;13.10;99.90;;;;;;12448924;28;20569;-84
2021/12/31 15:04:00;;;;;;;4.15;2.05;;;13.00;99.90;;;;;;12456286;28;20136;-85
2021/12/31 15:10:04;;;;;;;3.78;1.98;;;13.00;99.90;;;;;;12448635;28;20132;-86
2021/12/31 15:16:06;;;;;;;4.60;2.33;;;12.80;99.90;;;;;;12426965;28;20077;-84
2021/12/31 15:22:09;;;;;;;8.25;2.13;;;12.80;99.90;;;;;;12383951;28;20042;-84
2021/12/31 15:28:11;;;;;;;5.85;2.33;;;12.80;99.90;;;;;;12372191;28;20092;-86
2021/12/31 15:34:14;;;;;;;4.70;2.00;;;12.80;99.90;;;;;;12392228;28;20054;-84
2021/12/31 15:40:16;;;;;;;6.35;2.20;;;12.80;99.90;;;;;;12368769;28;20141;-86
2021/12/31 15:46:18;;;;;;;4.00;2.13;;;12.90;99.90;;;;;;12394603;28;20498;-88
2021/12/31 15:52:21;;;;;;;8.02;2.70;;;12.90;99.90;;;;;;12396324;28;20518;-85
2021/12/31 15:58:23;;;;;;;4.40;2.03;;;12.80;99.90;;;;;;12397503;28;20107;-86
2021/12/31 16:04:25;;;;;;;6.78;2.60;;;12.80;99.90;;;;;;12381175;28;20042;-86
2021/12/31 16:10:27;;;;;;;5.63;2.40;;;12.80;99.90;;;;;;12375599;28;20076;-85
2021/12/31 16:16:29;;;;;;;6.43;2.20;;;12.80;99.90;;;;;;12375725;28;20173;-86
2021/12/31 16:22:32;;;;;;;5.88;2.38;;;12.80;99.90;;;;;;12386840;28;20140;-85
2021/12/31 16:28:34;;;;;;;5.53;2.40;;;12.80;99.90;;;;;;12384720;28;20551;-84
2021/12/31 16:34:37;;;;;;;6.73;2.50;;;12.80;99.90;;;;;;12389301;28;20046;-85
2021/12/31 16:40:41;;;;;;;5.13;2.63;;;12.90;99.90;;;;;;12381494;28;20629;-84
2021/12/31 16:46:46;;;;;;;6.50;2.85;;;12.90;99.90;;;;;;12385278;28;20062;-84
2021/12/31 16:52:48;;;;;;;6.32;3.25;;;12.90;99.90;;;;;;12373226;28;20054;-84
2021/12/31 16:58:50;;;;;;;8.35;3.20;;;13.00;99.90;;;;;;12382598;28;20054;-85
2021/12/31 17:04:52;;;;;;;5.45;3.60;;;13.00;99.90;;;;;;12396061;28;20038;-85
2021/12/31 17:10:54;;;;;;;7.65;4.03;;;12.90;99.90;;;;;;12386020;28;20328;-83
2021/12/31 17:16:57;;;;;;;6.18;4.30;;;12.90;99.90;;;;;;12400236;28;20050;-85
2021/12/31 17:22:59;;;;;;;7.10;4.05;;;13.00;99.90;;;;;;12389408;28;20522;-84
2021/12/31 17:29:01;;;;;;;16.98;4.93;;;12.90;99.90;;;;;;12375760;28;20046;-86
2021/12/31 17:35:04;;;;;;;8.50;4.82;;;12.80;99.90;;;;;;12386737;28;20093;-83
2021/12/31 17:41:07;;;;;;;8.88;5.47;;;12.80;99.90;;;;;;12374822;28;20054;-83
2021/12/31 17:47:09;;;;;;;11.57;7.13;;;12.80;99.90;;;;;;12388836;28;20070;-83
2021/12/31 17:53:11;;;;;;;9.10;6.30;;;12.70;99.90;;;;;;12392870;28;20507;-84
2021/12/31 17:59:13;;;;;;;10.70;6.72;;;12.80;99.90;;;;;;12380012;28;20054;-84
2021/12/31 18:05:15;;;;;;;12.20;6.63;;;12.70;99.90;;;;;;12385974;28;20173;-86
2021/12/31 18:11:18;;;;;;;14.90;7.53;;;12.60;99.90;;;;;;12389403;28;21714;-84
2021/12/31 18:17:20;;;;;;;13.27;8.18;;;12.50;99.90;;;;;;12397978;28;20085;-83
2021/12/31 18:23:22;;;;;;;11.57;8.35;;;12.50;99.90;;;;;;12399133;28;20057;-83
2021/12/31 18:29:24;;;;;;;9.85;7.75;;;12.40;99.90;;;;;;12375346;28;20042;-85
2021/12/31 18:35:26;;;;;;;13.48;8.95;;;12.30;99.90;;;;;;12388211;28;20045;-84
2021/12/31 18:41:28;;;;;;;12.68;9.20;;;12.30;99.90;;;;;;12400960;28;20133;-84
2021/12/31 18:47:38;;;;;;;12.25;9.35;;;12.20;99.90;;;;;;12387001;28;20552;-84
2021/12/31 18:53:40;;;;;;;16.40;9.50;;;12.10;99.90;;;;;;12386126;28;20165;-84
2021/12/31 18:59:43;;;;;;;14.57;9.25;;;12.10;99.90;;;;;;12383659;28;20540;-85
2021/12/31 19:05:48;;;;;;;13.90;8.95;;;12.10;99.90;;;;;;12383376;28;20099;-84
2021/12/31 19:11:50;;;;;;;14.23;8.90;;;12.10;99.90;;;;;;12383666;28;20046;-86
2021/12/31 19:17:51;;;;;;;12.20;9.02;;;12.10;99.90;;;;;;12382932;28;20062;-84
2021/12/31 19:23:53;;;;;;;12.57;8.20;;;12.20;99.90;;;;;;12375466;28;20057;-85
2021/12/31 19:29:56;;;;;;;11.73;8.38;;;12.30;99.90;;;;;;12389942;28;20415;-83
2021/12/31 19:35:58;;;;;;;14.98;8.90;;;12.30;99.90;;;;;;12376783;28;20057;-86
2021/12/31 19:42:00;;;;;;;13.77;9.23;;;12.30;99.90;;;;;;12390869;28;20536;-84
2021/12/31 19:48:04;;;;;;;13.70;9.00;;;12.30;99.90;;;;;;12384632;28;20054;-84
2021/12/31 19:54:07;;;;;;;11.85;8.15;;;12.30;99.90;;;;;;12392926;28;20880;-83
2021/12/31 20:00:13;;;;;;;13.00;8.05;;;12.30;99.90;;;;;;12376798;28;20057;-86
2021/12/31 20:06:19;;;;;;;13.32;7.22;;;12.30;99.90;;;;;;12415057;28;20054;-83
2021/12/31 20:12:21;;;;;;;10.80;7.20;;;12.40;99.90;;;;;;12386799;28;20054;-85
2021/12/31 20:18:23;;;;;;;13.70;7.80;;;12.40;99.90;;;;;;12379201;28;20621;-85
2021/12/31 20:24:25;;;;;;;12.80;7.43;;;12.50;99.90;;;;;;12376190;28;20510;-82
2021/12/31 20:30:28;;;;;;;12.27;7.38;;;12.40;99.90;;;;;;12378939;28;20490;-85
2021/12/31 20:36:30;;;;;;;14.23;7.43;;;12.50;99.90;;;;;;12379618;28;20077;-85
2021/12/31 20:42:32;;;;;;;11.35;6.95;;;12.50;99.90;;;;;;12389685;28;20502;-85
2021/12/31 20:48:35;;;;;;;12.27;7.13;;;12.50;99.90;;;;;;12389093;28;20065;-84
2021/12/31 20:54:37;;;;;;;16.55;7.70;;;12.50;99.90;;;;;;12396815;28;20507;-83
2021/12/31 21:00:39;;;;;;;13.23;8.23;;;12.40;99.90;;;;;;12366063;28;20061;-84
2021/12/31 21:06:41;;;;;;;15.60;8.30;;;12.50;99.90;;;;;;12387337;28;20526;-85
2021/12/31 21:12:43;;;;;;;17.17;9.07;;;12.40;99.90;;;;;;12383929;28;20145;-83
2021/12/31 21:18:46;;;;;;;16.65;9.77;;;12.50;99.90;;;;;;12388021;28;20053;-84
2021/12/31 21:24:49;;;;;;;14.88;9.55;;;12.40;99.90;;;;;;12377213;28;20148;-85
2021/12/31 21:30:52;;;;;;;17.60;8.77;;;12.40;99.90;;;;;;12397734;28;20054;-85
2021/12/31 21:36:54;;;;;;;17.60;9.18;;;12.40;99.90;;;;;;12394904;28;20042;-85
2021/12/31 21:42:56;;;;;;;19.08;9.38;;;12.40;99.90;;;;;;12394638;28;20501;-84
2021/12/31 21:48:59;;;;;;;16.10;9.00;;;12.50;99.90;;;;;;12378687;28;20046;-84
2021/12/31 21:55:02;;;;;;;14.88;8.52;;;12.40;99.90;;;;;;12391571;28;20053;-85
2021/12/31 22:01:04;;;;;;;14.63;8.90;;;12.50;99.90;;;;;;12382855;28;20074;-85
2021/12/31 22:07:06;;;;;;;14.55;8.82;;;12.50;99.90;;;;;;12383333;28;20047;-85
2021/12/31 22:13:08;;;;;;;14.90;8.75;;;12.50;99.90;;;;;;12374619;28;20042;-85
2021/12/31 22:19:11;;;;;;;14.75;8.68;;;12.40;99.90;;;;;;12375617;28;20099;-83
2021/12/31 22:25:13;;;;;;;14.95;8.82;;;12.40;99.90;;;;;;12378454;28;20137;-84
2021/12/31 22:31:15;;;;;;;15.85;9.55;;;12.40;99.90;;;;;;12374525;28;20469;-84
2021/12/31 22:37:18;;;;;;;17.33;9.77;;;12.40;99.90;;;;;;12385644;28;20077;-83
2021/12/31 22:43:21;;;;;;;18.92;10.38;;;12.40;99.90;;;;;;12396232;28;20380;-84
2021/12/31 22:49:23;;;;;;;17.33;11.38;;;12.40;99.90;;;;;;12393660;28;20129;-85
2021/12/31 22:55:25;;;;;;;18.85;11.23;;;12.30;99.90;;;;;;12385815;28;20037;-84
2021/12/31 23:01:27;;;;;;;21.38;11.20;;;12.40;99.90;;;;;;12395817;28;20069;-83
2021/12/31 23:07:29;;;;;;;19.38;12.23;;;12.40;99.90;;;;;;12384365;28;20828;-85
2021/12/31 23:13:32;;;;;;;23.20;15.23;;;12.40;99.90;;;;;;12394494;28;20082;-84
2021/12/31 23:19:33;;;;;;;20.20;13.85;;;12.40;99.90;;;;;;12385316;28;20169;-84
2021/12/31 23:25:36;;;;;;;24.38;16.65;;;12.40;99.90;;;;;;12395729;28;20072;-84
2021/12/31 23:31:38;;;;;;;24.95;16.55;;;12.40;99.90;;;;;;12383855;28;20074;-84
2021/12/31 23:37:40;;;;;;;27.35;16.73;;;12.40;99.90;;;;;;12387138;28;20550;-83
2021/12/31 23:43:42;;;;;;;28.20;18.60;;;12.40;99.90;;;;;;12385330;28;20127;-83
2021/12/31 23:49:44;;;;;;;27.27;18.67;;;12.40;99.90;;;;;;12380570;28;20487;-85
2021/12/31 23:55:46;;;;;;;27.25;17.08;;;12.30;99.90;;;;;;12378716;28;20042;-84
